Time;durP1;ratioP1;P1;durP2;ratioP2;P2;SDS_P1;SDS_P2;PMS_P1;PMS_P2;Temp;Humidity;BMP_temperature;BMP_pressure;BME280_temperature;BME280_humidity;BME280_pressure;Samples;Min_cycle;Max_cycle;Signal;HPM_P1;HPM_P2
2022/04/07 00:00:02;;;;;;;1.20;1.10;;;;;;;;;;5117673;27;20584;-74
2022/04/07 00:02:31;;;;;;;1.00;1.00;;;;;;;;;;5117847;28;20226;-75
2022/04/07 00:04:59;;;;;;;1.00;0.70;;;;;;;;;;5109612;28;20211;-75
2022/04/07 00:07:27;;;;;;;1.27;1.17;;;;;;;;;;5117188;28;20201;-75
2022/04/07 00:09:55;;;;;;;1.43;1.00;;;;;;;;;;5117387;28;20652;-75
2022/04/07 00:12:23;;;;;;;0.80;0.80;;;;;;;;;;5117358;28;20207;-75
2022/04/07 00:14:51;;;;;;;1.10;1.10;;;;;;;;;;5117558;28;20203;-75
2022/04/07 00:17:20;;;;;;;1.50;1.20;;;;;;;;;;5117708;28;20303;-75
2022/04/07 00:19:49;;;;;;;1.20;1.10;;;;;;;;;;5117313;28;20303;-75
2022/04/07 00:22:17;;;;;;;1.83;0.90;;;;;;;;;;5117436;28;20680;-75
2022/04/07 00:24:45;;;;;;;1.37;1.17;;;;;;;;;;5117532;28;20657;-75
2022/04/07 00:27:13;;;;;;;1.30;1.20;;;;;;;;;;5115508;28;20217;-75
2022/04/07 00:29:41;;;;;;;1.30;1.20;;;;;;;;;;5117607;28;20203;-75
2022/04/07 00:32:09;;;;;;;0.80;0.80;;;;;;;;;;5117434;28;20203;-75
2022/04/07 00:34:39;;;;;;;1.40;1.30;;;;;;;;;;5117280;28;20284;-76
2022/04/07 00:37:07;;;;;;;1.60;1.50;;;;;;;;;;5116986;28;20217;-75
2022/04/07 00:39:35;;;;;;;1.70;1.60;;;;;;;;;;5116889;28;20568;-75
2022/04/07 00:42:03;;;;;;;1.60;1.50;;;;;;;;;;5116896;28;20228;-75
2022/04/07 00:44:31;;;;;;;3.63;1.50;;;;;;;;;;5117496;28;20207;-75
2022/04/07 00:46:59;;;;;;;2.00;1.70;;;;;;;;;;5116777;28;20695;-75
2022/04/07 00:49:27;;;;;;;2.17;1.60;;;;;;;;;;5117321;28;20197;-75
2022/04/07 00:51:56;;;;;;;2.33;1.80;;;;;;;;;;5117000;28;20256;-76
2022/04/07 00:54:24;;;;;;;3.67;1.60;;;;;;;;;;5116996;28;20205;-75
2022/04/07 00:56:54;;;;;;;2.00;1.80;;;;;;;;;;5118859;28;20224;-75
2022/04/07 00:59:23;;;;;;;4.13;1.97;;;;;;;;;;5121341;28;20197;-75
2022/04/07 01:01:51;;;;;;;3.10;2.10;;;;;;;;;;5120700;28;20199;-75
2022/04/07 01:04:19;;;;;;;2.27;1.80;;;;;;;;;;5121173;28;20204;-75
2022/04/07 01:06:48;;;;;;;2.30;1.57;;;;;;;;;;5120398;28;20231;-75
2022/04/07 01:09:18;;;;;;;2.70;1.70;;;;;;;;;;5120465;28;20193;-75
2022/04/07 01:11:47;;;;;;;2.03;1.77;;;;;;;;;;5120828;28;20197;-75
2022/04/07 01:14:15;;;;;;;3.83;1.90;;;;;;;;;;5120462;28;20679;-75
2022/04/07 01:16:43;;;;;;;2.97;2.07;;;;;;;;;;5120496;28;20242;-75
2022/04/07 01:19:11;;;;;;;1.70;1.60;;;;;;;;;;5120649;28;20208;-76
2022/04/07 01:21:39;;;;;;;2.10;1.90;;;;;;;;;;5120423;27;20196;-75
2022/04/07 01:24:08;;;;;;;2.77;1.90;;;;;;;;;;5119958;28;20231;-75
2022/04/07 01:26:38;;;;;;;2.43;1.60;;;;;;;;;;5120543;28;20217;-75
2022/04/07 01:29:07;;;;;;;1.63;1.53;;;;;;;;;;5120257;28;20205;-75
2022/04/07 01:31:35;;;;;;;1.37;1.27;;;;;;;;;;5120384;28;20208;-75
2022/04/07 01:34:05;;;;;;;2.70;1.60;;;;;;;;;;5120353;28;20238;-75
2022/04/07 01:36:35;;;;;;;1.63;1.53;;;;;;;;;;5112219;28;20217;-75
2022/04/07 01:39:03;;;;;;;1.50;1.37;;;;;;;;;;5120293;28;20264;-75
2022/04/07 01:41:32;;;;;;;1.60;1.50;;;;;;;;;;5120227;28;20289;-75
2022/04/07 01:44:01;;;;;;;1.90;1.37;;;;;;;;;;5119852;28;20225;-75
2022/04/07 01:46:30;;;;;;;1.57;1.47;;;;;;;;;;5119948;28;20217;-76
2022/04/07 01:48:59;;;;;;;1.30;1.20;;;;;;;;;;5120271;28;20322;-75
2022/04/07 01:51:28;;;;;;;1.50;1.40;;;;;;;;;;5119252;28;20582;-75
2022/04/07 01:53:57;;;;;;;2.30;1.50;;;;;;;;;;5120008;28;20557;-75
2022/04/07 01:56:25;;;;;;;1.07;1.07;;;;;;;;;;5119548;28;20232;-75
2022/04/07 01:58:54;;;;;;;1.40;1.20;;;;;;;;;;5119884;28;20208;-75
2022/04/07 02:01:23;;;;;;;1.50;1.40;;;;;;;;;;5119575;28;20233;-75
2022/04/07 02:03:51;;;;;;;1.60;1.50;;;;;;;;;;5116805;28;20217;-75
2022/04/07 02:06:20;;;;;;;3.30;1.50;;;;;;;;;;5119512;28;20687;-75
2022/04/07 02:08:48;;;;;;;1.63;1.50;;;;;;;;;;5119274;28;20207;-75
2022/04/07 02:11:16;;;;;;;1.70;1.60;;;;;;;;;;5119615;28;20201;-75
2022/04/07 02:13:44;;;;;;;2.33;1.70;;;;;;;;;;5119503;28;20204;-75
2022/04/07 02:16:13;;;;;;;1.73;1.63;;;;;;;;;;5119555;28;20227;-75
2022/04/07 02:18:43;;;;;;;2.60;1.97;;;;;;;;;;5119318;28;20209;-75
2022/04/07 02:21:11;;;;;;;2.93;2.23;;;;;;;;;;5119244;28;20196;-76
2022/04/07 02:23:42;;;;;;;2.57;1.83;;;;;;;;;;5119511;28;20221;-75
2022/04/07 02:26:11;;;;;;;2.73;2.43;;;;;;;;;;5111234;28;20220;-75
2022/04/07 02:28:40;;;;;;;2.93;2.70;;;;;;;;;;5111651;28;20280;-75
2022/04/07 02:31:08;;;;;;;4.23;3.30;;;;;;;;;;5119325;28;20288;-75
2022/04/07 02:33:36;;;;;;;7.30;4.77;;;;;;;;;;5119345;28;20200;-75
2022/04/07 02:36:06;;;;;;;4.80;3.97;;;;;;;;;;5118786;28;20263;-75
2022/04/07 02:38:35;;;;;;;4.47;3.50;;;;;;;;;;5119120;28;20207;-75
2022/04/07 02:41:03;;;;;;;3.70;3.40;;;;;;;;;;5118894;28;20200;-75
2022/04/07 02:43:30;;;;;;;3.50;3.00;;;;;;;;;;5115391;28;20231;-75
2022/04/07 02:45:58;;;;;;;4.40;3.60;;;;;;;;;;5119112;28;20284;-75
2022/04/07 02:48:27;;;;;;;5.03;3.80;;;;;;;;;;5118677;28;20234;-75
2022/04/07 02:50:55;;;;;;;5.37;4.87;;;;;;;;;;5118813;28;20201;-75
2022/04/07 02:53:25;;;;;;;7.50;4.27;;;;;;;;;;5118500;28;20201;-75
2022/04/07 02:55:53;;;;;;;4.20;3.80;;;;;;;;;;5118701;28;20275;-75
2022/04/07 02:58:20;;;;;;;6.00;4.20;;;;;;;;;;5118369;28;20208;-75
2022/04/07 03:00:48;;;;;;;4.63;4.23;;;;;;;;;;5118648;28;20311;-76
2022/04/07 03:03:16;;;;;;;5.43;4.70;;;;;;;;;;5118682;28;20291;-75
2022/04/07 03:05:45;;;;;;;6.27;4.77;;;;;;;;;;5118337;28;20727;-75
2022/04/07 03:08:13;;;;;;;4.77;4.27;;;;;;;;;;5118595;28;20201;-76
2022/04/07 03:10:42;;;;;;;4.63;4.10;;;;;;;;;;5118790;28;20201;-75
2022/04/07 03:13:11;;;;;;;5.00;4.13;;;;;;;;;;5118876;28;20205;-76
2022/04/07 03:15:39;;;;;;;12.90;7.57;;;;;;;;;;5117863;28;20224;-75
2022/04/07 03:18:07;;;;;;;6.13;3.80;;;;;;;;;;5110537;28;20197;-75
2022/04/07 03:20:35;;;;;;;4.17;3.77;;;;;;;;;;5117725;28;20747;-75
2022/04/07 03:23:02;;;;;;;4.17;3.23;;;;;;;;;;5117969;28;20211;-75
2022/04/07 03:25:31;;;;;;;6.40;3.57;;;;;;;;;;5118314;28;20221;-75
2022/04/07 03:28:00;;;;;;;4.30;3.53;;;;;;;;;;5118066;28;20212;-75
2022/04/07 03:30:28;;;;;;;3.20;2.90;;;;;;;;;;5118286;28;20205;-75
2022/04/07 03:32:56;;;;;;;4.17;3.10;;;;;;;;;;5117959;28;20281;-75
2022/04/07 03:35:24;;;;;;;3.40;3.10;;;;;;;;;;5118164;28;20213;-75
2022/04/07 03:37:52;;;;;;;3.23;2.93;;;;;;;;;;5117730;28;20287;-75
2022/04/07 03:40:20;;;;;;;3.33;3.03;;;;;;;;;;5117981;28;20672;-75
2022/04/07 03:42:48;;;;;;;3.50;3.20;;;;;;;;;;5114774;28;20207;-75
2022/04/07 03:45:17;;;;;;;3.17;2.93;;;;;;;;;;5117303;28;20642;-75
2022/04/07 03:47:45;;;;;;;3.10;2.80;;;;;;;;;;5117362;28;20209;-75
2022/04/07 03:50:13;;;;;;;3.53;3.00;;;;;;;;;;5117147;28;20204;-75
2022/04/07 03:52:41;;;;;;;4.53;3.47;;;;;;;;;;5117131;28;20686;-75
2022/04/07 03:55:10;;;;;;;4.63;3.00;;;;;;;;;;5117377;28;20207;-75
2022/04/07 03:57:38;;;;;;;3.90;3.20;;;;;;;;;;5116865;28;20211;-75
2022/04/07 04:00:06;;;;;;;4.63;2.83;;;;;;;;;;5117514;28;20242;-75
2022/04/07 04:02:35;;;;;;;3.33;3.07;;;;;;;;;;5117662;28;20207;-74
2022/04/07 04:05:04;;;;;;;4.10;3.80;;;;;;;;;;5117605;28;20227;-75
2022/04/07 04:07:32;;;;;;;3.73;3.03;;;;;;;;;;5116850;28;20231;-75
2022/04/07 04:10:01;;;;;;;3.43;2.77;;;;;;;;;;5117718;28;20280;-75
2022/04/07 04:12:29;;;;;;;2.97;2.60;;;;;;;;;;5117663;28;20200;-74
2022/04/07 04:14:57;;;;;;;4.50;3.20;;;;;;;;;;5117242;28;20205;-75
2022/04/07 04:17:27;;;;;;;4.37;3.30;;;;;;;;;;5117463;28;20204;-75
2022/04/07 04:19:57;;;;;;;3.50;3.20;;;;;;;;;;5117273;28;20208;-75
2022/04/07 04:22:25;;;;;;;3.23;2.87;;;;;;;;;;5117191;28;20203;-74
2022/04/07 04:24:53;;;;;;;5.87;2.80;;;;;;;;;;5116390;28;20592;-74
2022/04/07 04:27:20;;;;;;;2.70;2.43;;;;;;;;;;5114766;28;20228;-74
2022/04/07 04:29:48;;;;;;;3.37;3.03;;;;;;;;;;5117352;28;20207;-74
2022/04/07 04:32:16;;;;;;;3.57;2.93;;;;;;;;;;5121106;28;20217;-74
2022/04/07 04:34:44;;;;;;;4.40;2.87;;;;;;;;;;5120846;28;20568;-74
2022/04/07 04:37:14;;;;;;;3.17;2.50;;;;;;;;;;5120303;28;20707;-74
2022/04/07 04:39:42;;;;;;;3.27;2.20;;;;;;;;;;5121145;28;20280;-74
2022/04/07 04:42:10;;;;;;;2.40;2.20;;;;;;;;;;5120718;28;20264;-75
2022/04/07 04:44:38;;;;;;;3.47;2.70;;;;;;;;;;5118351;28;20221;-74
2022/04/07 04:47:06;;;;;;;10.17;5.70;;;;;;;;;;5120528;28;20220;-74
2022/04/07 04:49:34;;;;;;;2.53;2.20;;;;;;;;;;5120950;28;20201;-75
2022/04/07 04:52:02;;;;;;;3.77;2.97;;;;;;;;;;5120290;28;20208;-75
2022/04/07 04:54:31;;;;;;;2.90;2.60;;;;;;;;;;5120556;28;20193;-75
2022/04/07 04:56:59;;;;;;;3.47;2.23;;;;;;;;;;5117561;28;20696;-73
2022/04/07 04:59:27;;;;;;;2.43;2.23;;;;;;;;;;5120031;28;20201;-71
2022/04/07 05:01:55;;;;;;;2.77;2.00;;;;;;;;;;5117875;28;20632;-74
2022/04/07 05:04:23;;;;;;;5.00;2.50;;;;;;;;;;5118565;28;20212;-73
2022/04/07 05:06:52;;;;;;;2.63;2.40;;;;;;;;;;5120249;28;20244;-74
2022/04/07 05:09:20;;;;;;;2.83;2.00;;;;;;;;;;5120136;28;21842;-75
2022/04/07 05:11:49;;;;;;;2.33;2.00;;;;;;;;;;5120437;28;20197;-75
2022/04/07 05:14:17;;;;;;;1.83;1.73;;;;;;;;;;5119159;28;20196;-74
2022/04/07 05:16:50;;;;;;;2.53;2.10;;;;;;;;;;5120989;28;20224;-75
2022/04/07 05:19:18;;;;;;;1.70;1.60;;;;;;;;;;5120523;28;20212;-74
2022/04/07 05:21:49;;;;;;;1.57;1.47;;;;;;;;;;5120613;28;20201;-74
2022/04/07 05:24:18;;;;;;;3.50;1.90;;;;;;;;;;5119807;28;20205;-74
2022/04/07 05:26:46;;;;;;;1.83;1.73;;;;;;;;;;5120780;28;20220;-74
2022/04/07 05:29:15;;;;;;;4.17;1.80;;;;;;;;;;5120371;28;20676;-74
2022/04/07 05:31:43;;;;;;;3.40;2.17;;;;;;;;;;5120562;28;20279;-75
2022/04/07 05:34:13;;;;;;;1.73;1.63;;;;;;;;;;5117068;28;20205;-74
2022/04/07 05:36:42;;;;;;;3.00;1.87;;;;;;;;;;5119352;28;20216;-74
2022/04/07 05:39:10;;;;;;;3.67;2.13;;;;;;;;;;5119690;28;20201;-74
2022/04/07 05:41:38;;;;;;;2.10;1.90;;;;;;;;;;5118703;28;20205;-73
2022/04/07 05:44:06;;;;;;;2.00;1.87;;;;;;;;;;5119757;28;20205;-73
2022/04/07 05:46:35;;;;;;;2.80;1.97;;;;;;;;;;5119473;28;20217;-73
2022/04/07 05:49:10;;;;;;;2.03;1.80;;;;;;;;;;5118212;28;20206;-73
2022/04/07 05:51:38;;;;;;;1.97;1.87;;;;;;;;;;5118644;28;20215;-74
2022/04/07 05:54:07;;;;;;;2.13;2.00;;;;;;;;;;5119941;28;20201;-74
2022/04/07 05:56:35;;;;;;;3.00;1.83;;;;;;;;;;5119582;28;20220;-74
2022/04/07 05:59:03;;;;;;;2.20;2.00;;;;;;;;;;5116775;28;20288;-73
2022/04/07 06:01:31;;;;;;;4.97;2.57;;;;;;;;;;5117804;27;20312;-74
2022/04/07 06:04:01;;;;;;;2.13;1.93;;;;;;;;;;5119036;28;20577;-74
2022/04/07 06:06:29;;;;;;;2.33;2.23;;;;;;;;;;5117151;28;20312;-74
2022/04/07 06:08:57;;;;;;;3.27;2.53;;;;;;;;;;5118367;28;20232;-74
2022/04/07 06:11:25;;;;;;;3.73;2.30;;;;;;;;;;5119223;28;20207;-74
2022/04/07 06:13:53;;;;;;;4.80;2.30;;;;;;;;;;5118835;28;20197;-73
2022/04/07 06:16:21;;;;;;;6.17;2.37;;;;;;;;;;5118457;28;20244;-74
2022/04/07 06:18:49;;;;;;;3.23;2.20;;;;;;;;;;5118755;28;20630;-74
2022/04/07 06:21:18;;;;;;;6.17;2.67;;;;;;;;;;5118169;28;20211;-74
2022/04/07 06:23:46;;;;;;;2.17;1.97;;;;;;;;;;5118599;28;20201;-74
2022/04/07 06:26:14;;;;;;;3.97;3.03;;;;;;;;;;5118846;28;20227;-74
2022/04/07 06:28:43;;;;;;;2.43;2.07;;;;;;;;;;5116069;28;20281;-75
2022/04/07 06:31:11;;;;;;;3.40;2.40;;;;;;;;;;5119139;28;20201;-74
2022/04/07 06:33:39;;;;;;;3.90;2.40;;;;;;;;;;5116023;28;20197;-74
2022/04/07 06:36:28;;;;;;;2.30;2.10;;;;;;;;;;5122166;27;20213;-74
2022/04/07 06:38:56;;;;;;;4.03;2.80;;;;;;;;;;5119131;27;20207;-74
2022/04/07 06:41:24;;;;;;;2.17;1.70;;;;;;;;;;5130416;27;20196;-73
2022/04/07 06:43:53;;;;;;;3.40;2.10;;;;;;;;;;5118944;27;20203;-74
2022/04/07 06:46:22;;;;;;;2.27;1.90;;;;;;;;;;5126360;27;20239;-73
2022/04/07 06:48:50;;;;;;;1.90;1.80;;;;;;;;;;5118271;27;20284;-73
2022/04/07 06:51:18;;;;;;;3.33;1.67;;;;;;;;;;5120075;27;20201;-74
2022/04/07 06:53:48;;;;;;;1.40;1.30;;;;;;;;;;5116029;27;20199;-74
2022/04/07 06:56:16;;;;;;;2.50;2.27;;;;;;;;;;5118364;28;20234;-74
2022/04/07 06:58:44;;;;;;;3.83;1.90;;;;;;;;;;5118377;27;20705;-75
2022/04/07 07:01:12;;;;;;;2.90;2.40;;;;;;;;;;5117825;27;20228;-74
2022/04/07 07:03:40;;;;;;;2.53;2.10;;;;;;;;;;5118002;28;20242;-75
2022/04/07 07:06:08;;;;;;;2.13;1.93;;;;;;;;;;5112108;27;20232;-75
2022/04/07 07:08:36;;;;;;;2.70;2.30;;;;;;;;;;5115781;27;20193;-75
2022/04/07 07:11:06;;;;;;;4.70;2.07;;;;;;;;;;5116787;27;20617;-75
2022/04/07 07:13:36;;;;;;;4.10;1.97;;;;;;;;;;5117777;27;20283;-75
2022/04/07 07:16:04;;;;;;;2.20;2.10;;;;;;;;;;5115968;28;20289;-75
2022/04/07 07:18:33;;;;;;;2.60;1.80;;;;;;;;;;5116622;27;20203;-76
2022/04/07 07:21:01;;;;;;;2.37;1.77;;;;;;;;;;5116613;28;20201;-75
2022/04/07 07:23:30;;;;;;;1.77;1.40;;;;;;;;;;5118717;27;20235;-75
2022/04/07 07:25:58;;;;;;;1.50;1.40;;;;;;;;;;5117857;28;20220;-74
2022/04/07 07:28:27;;;;;;;3.73;1.60;;;;;;;;;;5122614;27;20199;-74
2022/04/07 07:30:55;;;;;;;1.80;1.50;;;;;;;;;;5117507;27;20686;-75
2022/04/07 07:33:23;;;;;;;1.37;1.27;;;;;;;;;;5115341;27;20199;-78
2022/04/07 07:35:51;;;;;;;2.57;1.60;;;;;;;;;;5117597;27;20601;-77
2022/04/07 07:38:20;;;;;;;1.87;1.70;;;;;;;;;;5115130;28;20598;-77
2022/04/07 07:40:48;;;;;;;5.27;2.00;;;;;;;;;;5115640;28;20276;-76
2022/04/07 07:43:16;;;;;;;1.70;1.60;;;;;;;;;;5112665;28;20280;-76
2022/04/07 07:45:46;;;;;;;2.83;1.70;;;;;;;;;;5115207;28;20227;-76
2022/04/07 07:48:24;;;;;;;3.00;1.90;;;;;;;;;;5115475;27;20197;-76
2022/04/07 07:50:52;;;;;;;2.00;1.70;;;;;;;;;;5115968;28;20660;-76
2022/04/07 07:53:20;;;;;;;1.83;1.67;;;;;;;;;;5117093;28;20205;-76
2022/04/07 07:55:49;;;;;;;2.53;1.67;;;;;;;;;;5115708;28;20212;-76
2022/04/07 07:58:17;;;;;;;1.50;1.40;;;;;;;;;;5117041;27;20292;-78
2022/04/07 08:00:46;;;;;;;2.23;1.80;;;;;;;;;;5117791;27;20230;-78
2022/04/07 08:03:15;;;;;;;6.27;1.93;;;;;;;;;;5116503;28;20211;-78
2022/04/07 08:05:43;;;;;;;5.10;1.80;;;;;;;;;;5118667;27;20308;-78
2022/04/07 08:08:12;;;;;;;5.03;1.30;;;;;;;;;;5110578;28;20201;-76
2022/04/07 08:10:40;;;;;;;1.53;1.30;;;;;;;;;;5119586;28;20211;-76
2022/04/07 08:13:08;;;;;;;2.43;1.30;;;;;;;;;;5118195;28;20214;-77
2022/04/07 08:15:37;;;;;;;1.37;1.20;;;;;;;;;;5117620;28;20239;-77
2022/04/07 08:18:07;;;;;;;1.50;1.40;;;;;;;;;;5116876;28;20193;-77
2022/04/07 08:20:35;;;;;;;1.50;1.40;;;;;;;;;;5124517;28;20207;-77
2022/04/07 08:23:03;;;;;;;4.00;1.27;;;;;;;;;;5118046;28;20201;-78
2022/04/07 08:25:31;;;;;;;3.17;1.90;;;;;;;;;;5124646;28;20230;-78
2022/04/07 08:27:59;;;;;;;2.47;1.67;;;;;;;;;;5103366;28;20730;-78
2022/04/07 08:30:27;;;;;;;1.90;1.20;;;;;;;;;;5119214;28;20279;-79
2022/04/07 08:32:55;;;;;;;2.10;1.00;;;;;;;;;;5116756;28;20229;-80
2022/04/07 08:35:25;;;;;;;1.30;1.20;;;;;;;;;;5117188;28;20309;-79
2022/04/07 08:37:52;;;;;;;1.40;1.30;;;;;;;;;;5116756;28;20656;-80
2022/04/07 08:40:21;;;;;;;1.10;1.10;;;;;;;;;;5120849;28;20192;-79
2022/04/07 08:42:49;;;;;;;1.63;1.43;;;;;;;;;;5126089;28;20216;-78
2022/04/07 08:45:17;;;;;;;1.07;1.07;;;;;;;;;;5108828;28;20197;-78
2022/04/07 08:47:47;;;;;;;2.27;1.30;;;;;;;;;;5117059;28;20216;-76
2022/04/07 08:50:15;;;;;;;1.10;1.00;;;;;;;;;;5112737;28;20277;-76
2022/04/07 08:52:45;;;;;;;1.73;1.10;;;;;;;;;;5121015;28;20552;-77
2022/04/07 08:55:14;;;;;;;1.27;1.17;;;;;;;;;;5122492;28;20279;-76
2022/04/07 08:57:42;;;;;;;1.03;1.00;;;;;;;;;;5122654;28;20272;-77
2022/04/07 09:00:11;;;;;;;1.40;1.30;;;;;;;;;;5120351;28;20273;-78
2022/04/07 09:02:39;;;;;;;1.20;1.10;;;;;;;;;;5116477;28;20240;-71
2022/04/07 09:08:38;;;;;;;1.00;0.90;;;;;;;;;;5112602;28;20680;-76
2022/04/07 09:11:06;;;;;;;1.97;1.50;;;;;;;;;;5111914;28;20265;-76
2022/04/07 09:13:35;;;;;;;2.43;1.23;;;;;;;;;;5113629;28;20202;-75
2022/04/07 09:16:03;;;;;;;1.17;1.07;;;;;;;;;;5116369;28;20227;-75
2022/04/07 09:18:34;;;;;;;1.60;1.40;;;;;;;;;;5118990;27;20197;-76
2022/04/07 09:21:02;;;;;;;1.97;1.30;;;;;;;;;;5124449;27;20205;-75
2022/04/07 09:23:30;;;;;;;5.13;1.47;;;;;;;;;;5122859;27;20685;-77
2022/04/07 09:26:00;;;;;;;2.57;1.43;;;;;;;;;;5123371;27;20232;-75
2022/04/07 09:28:33;;;;;;;1.63;1.50;;;;;;;;;;5118564;27;20220;-75
2022/04/07 09:31:01;;;;;;;1.67;1.40;;;;;;;;;;5121725;27;20200;-75
2022/04/07 09:33:36;;;;;;;1.40;1.20;;;;;;;;;;5119827;27;20197;-78
2022/04/07 09:36:05;;;;;;;1.53;1.20;;;;;;;;;;5122183;27;20588;-78
2022/04/07 09:38:34;;;;;;;1.60;1.43;;;;;;;;;;5117246;28;20193;-76
2022/04/07 09:41:08;;;;;;;1.30;1.20;;;;;;;;;;5129202;27;20207;-77
2022/04/07 09:43:43;;;;;;;2.10;1.13;;;;;;;;;;5106931;27;20627;-77
2022/04/07 09:46:12;;;;;;;2.53;1.40;;;;;;;;;;5119845;27;20308;-76
2022/04/07 09:48:41;;;;;;;1.80;1.70;;;;;;;;;;5119227;28;20848;-75
2022/04/07 09:51:09;;;;;;;1.70;1.23;;;;;;;;;;5118404;27;20197;-74
2022/04/07 09:53:38;;;;;;;2.93;1.23;;;;;;;;;;5119426;28;20675;-76
2022/04/07 09:56:08;;;;;;;1.37;1.20;;;;;;;;;;5121784;27;20228;-76
2022/04/07 09:58:36;;;;;;;1.60;1.30;;;;;;;;;;5128861;27;20253;-77
2022/04/07 10:01:05;;;;;;;1.00;0.90;;;;;;;;;;5120574;27;20567;-78
2022/04/07 10:03:33;;;;;;;1.80;1.70;;;;;;;;;;5123413;27;20196;-77
2022/04/07 10:06:01;;;;;;;1.60;1.47;;;;;;;;;;5123496;27;20217;-78
2022/04/07 10:08:29;;;;;;;3.23;1.00;;;;;;;;;;5117854;27;20247;-79
2022/04/07 10:10:58;;;;;;;0.93;0.93;;;;;;;;;;5133273;27;20264;-79
2022/04/07 10:13:30;;;;;;;1.40;1.30;;;;;;;;;;5122252;27;20264;-79
2022/04/07 10:15:58;;;;;;;1.13;1.03;;;;;;;;;;5122318;27;20248;-79
2022/04/07 10:18:29;;;;;;;1.00;1.00;;;;;;;;;;5129733;27;20216;-79
2022/04/07 10:20:58;;;;;;;1.30;1.20;;;;;;;;;;5105661;28;20200;-78
2022/04/07 10:23:31;;;;;;;1.27;1.10;;;;;;;;;;5124415;27;20211;-79
2022/04/07 10:26:00;;;;;;;1.57;0.90;;;;;;;;;;5125234;27;20256;-79
2022/04/07 10:28:30;;;;;;;1.17;1.13;;;;;;;;;;5120984;27;20224;-78
2022/04/07 10:31:12;;;;;;;0.93;0.93;;;;;;;;;;5127538;27;20228;-79
2022/04/07 10:33:41;;;;;;;2.93;0.73;;;;;;;;;;5122901;27;20196;-79
2022/04/07 10:36:16;;;;;;;1.10;1.00;;;;;;;;;;5127004;27;20219;-79
2022/04/07 10:38:46;;;;;;;1.10;1.00;;;;;;;;;;5111038;28;20668;-79
2022/04/07 10:41:29;;;;;;;1.13;1.00;;;;;;;;;;5124725;27;20628;-79
2022/04/07 10:44:09;;;;;;;1.57;1.10;;;;;;;;;;5120006;27;20233;-79
2022/04/07 10:46:37;;;;;;;1.47;0.90;;;;;;;;;;5114944;27;20587;-79
2022/04/07 10:49:06;;;;;;;0.70;0.70;;;;;;;;;;5119409;27;20222;-79
2022/04/07 10:51:44;;;;;;;1.90;1.23;;;;;;;;;;5122656;27;20652;-79
2022/04/07 10:54:12;;;;;;;2.53;0.90;;;;;;;;;;5124769;27;20719;-78
2022/04/07 10:56:46;;;;;;;0.80;0.70;;;;;;;;;;5118242;27;20300;-79
2022/04/07 10:59:20;;;;;;;1.80;1.10;;;;;;;;;;5122638;27;20192;-78
2022/04/07 11:01:52;;;;;;;1.10;1.10;;;;;;;;;;5118588;28;20208;-78
2022/04/07 11:04:31;;;;;;;1.27;0.90;;;;;;;;;;5118743;28;20988;-75
2022/04/07 11:07:14;;;;;;;0.93;0.83;;;;;;;;;;5120349;27;20215;-75
2022/04/07 11:09:58;;;;;;;0.63;0.63;;;;;;;;;;5126619;27;20282;-75
2022/04/07 11:12:28;;;;;;;2.20;1.20;;;;;;;;;;5117569;28;20196;-75
2022/04/07 11:15:11;;;;;;;1.60;0.97;;;;;;;;;;5123053;27;20680;-75
2022/04/07 11:17:49;;;;;;;2.87;1.47;;;;;;;;;;5119904;27;20582;-75
2022/04/07 11:20:18;;;;;;;1.00;0.83;;;;;;;;;;5124008;27;20204;-75
2022/04/07 11:22:46;;;;;;;1.37;1.03;;;;;;;;;;5131895;27;20487;-75
2022/04/07 11:25:14;;;;;;;2.40;0.90;;;;;;;;;;5135064;27;20222;-75
2022/04/07 11:27:45;;;;;;;2.20;1.23;;;;;;;;;;5117319;27;20297;-75
2022/04/07 11:30:13;;;;;;;2.47;0.87;;;;;;;;;;5122632;27;20205;-75
2022/04/07 11:32:56;;;;;;;1.43;0.97;;;;;;;;;;5116166;27;20272;-75
2022/04/07 11:35:26;;;;;;;1.10;1.10;;;;;;;;;;5115688;27;20220;-75
2022/04/07 11:37:54;;;;;;;1.43;1.33;;;;;;;;;;5109594;28;20203;-75
2022/04/07 11:40:22;;;;;;;1.23;1.03;;;;;;;;;;5123545;27;20291;-75
2022/04/07 11:42:50;;;;;;;1.10;1.00;;;;;;;;;;5116214;28;20204;-75
2022/04/07 11:45:18;;;;;;;1.47;1.10;;;;;;;;;;5126222;27;20229;-75
2022/04/07 11:47:50;;;;;;;1.20;0.97;;;;;;;;;;5127864;27;20201;-75
2022/04/07 11:50:20;;;;;;;3.03;1.10;;;;;;;;;;5118438;28;20229;-75
2022/04/07 11:52:50;;;;;;;1.10;1.10;;;;;;;;;;5121146;27;20287;-75
2022/04/07 11:55:27;;;;;;;1.23;1.13;;;;;;;;;;5122092;27;20261;-75
2022/04/07 11:57:58;;;;;;;1.20;1.10;;;;;;;;;;5125309;27;20210;-75
2022/04/07 12:00:29;;;;;;;1.00;1.00;;;;;;;;;;5126321;27;20233;-75
2022/04/07 12:02:58;;;;;;;1.43;0.87;;;;;;;;;;5128858;27;20215;-75
2022/04/07 12:05:26;;;;;;;2.20;1.50;;;;;;;;;;5109044;28;20217;-75
2022/04/07 12:07:56;;;;;;;1.23;1.00;;;;;;;;;;5109186;27;20575;-75
2022/04/07 12:10:24;;;;;;;3.23;1.20;;;;;;;;;;5124641;27;20206;-75
2022/04/07 12:12:52;;;;;;;1.27;1.17;;;;;;;;;;5130598;28;20196;-75
2022/04/07 12:15:20;;;;;;;0.80;0.73;;;;;;;;;;5129244;28;20220;-75
2022/04/07 12:18:00;;;;;;;2.30;1.20;;;;;;;;;;5120376;28;20200;-75
2022/04/07 12:20:29;;;;;;;2.60;1.20;;;;;;;;;;5123796;28;20564;-75
2022/04/07 12:23:07;;;;;;;1.40;1.10;;;;;;;;;;5126290;28;20203;-75
2022/04/07 12:25:36;;;;;;;2.50;1.27;;;;;;;;;;5123756;28;20583;-75
2022/04/07 12:28:07;;;;;;;0.80;0.80;;;;;;;;;;5127515;28;20661;-76
2022/04/07 12:30:45;;;;;;;1.23;1.07;;;;;;;;;;5122577;28;20200;-75
2022/04/07 12:33:13;;;;;;;2.17;1.00;;;;;;;;;;5117244;28;20279;-76
2022/04/07 12:35:44;;;;;;;1.73;0.87;;;;;;;;;;5113737;28;20219;-75
2022/04/07 12:38:14;;;;;;;1.13;1.10;;;;;;;;;;5119644;28;20268;-75
2022/04/07 12:40:42;;;;;;;4.07;1.10;;;;;;;;;;5124388;28;20201;-76
2022/04/07 12:43:10;;;;;;;5.20;1.57;;;;;;;;;;5126134;28;20291;-75
2022/04/07 12:45:53;;;;;;;1.73;1.07;;;;;;;;;;5118527;28;20615;-75
2022/04/07 12:48:23;;;;;;;2.77;1.10;;;;;;;;;;5133698;28;20311;-75
2022/04/07 12:50:56;;;;;;;0.93;0.70;;;;;;;;;;5132945;27;20206;-75
2022/04/07 12:53:29;;;;;;;1.80;1.30;;;;;;;;;;5134691;27;20234;-75
2022/04/07 12:56:02;;;;;;;1.30;1.10;;;;;;;;;;5128539;27;20580;-75
2022/04/07 12:58:31;;;;;;;1.47;1.30;;;;;;;;;;5121015;27;20283;-76
2022/04/07 13:00:59;;;;;;;0.90;0.90;;;;;;;;;;5127738;27;20597;-75
2022/04/07 13:03:28;;;;;;;1.57;1.23;;;;;;;;;;5124544;27;20201;-76
2022/04/07 13:05:56;;;;;;;1.50;1.13;;;;;;;;;;5126744;27;20224;-75
2022/04/07 13:08:24;;;;;;;2.53;1.00;;;;;;;;;;5122932;27;20659;-75
2022/04/07 13:10:54;;;;;;;1.20;0.93;;;;;;;;;;5135344;27;20566;-75
2022/04/07 13:13:22;;;;;;;1.20;1.10;;;;;;;;;;5129684;27;20204;-75
2022/04/07 13:15:50;;;;;;;1.03;1.00;;;;;;;;;;5129123;27;20253;-75
2022/04/07 13:18:18;;;;;;;1.10;1.00;;;;;;;;;;5124012;27;20197;-76
2022/04/07 13:20:46;;;;;;;1.03;1.00;;;;;;;;;;5123773;27;20256;-75
2022/04/07 13:23:14;;;;;;;0.70;0.70;;;;;;;;;;5125981;27;20677;-76
2022/04/07 13:25:42;;;;;;;1.20;1.10;;;;;;;;;;5131033;27;20226;-76
2022/04/07 13:28:12;;;;;;;1.23;0.90;;;;;;;;;;5126970;27;20668;-75
2022/04/07 13:30:40;;;;;;;1.83;1.03;;;;;;;;;;5123044;27;20284;-76
2022/04/07 13:33:08;;;;;;;1.10;0.93;;;;;;;;;;5129930;27;20279;-76
2022/04/07 13:35:47;;;;;;;1.90;1.10;;;;;;;;;;5132252;27;20303;-75
2022/04/07 13:38:15;;;;;;;2.40;1.00;;;;;;;;;;5112345;28;20203;-75
2022/04/07 13:40:43;;;;;;;1.23;1.10;;;;;;;;;;5124844;27;20239;-75
2022/04/07 13:43:13;;;;;;;2.37;1.17;;;;;;;;;;5129412;27;20287;-75
2022/04/07 13:45:44;;;;;;;1.93;1.30;;;;;;;;;;5134920;27;20237;-75
2022/04/07 13:48:20;;;;;;;1.50;0.90;;;;;;;;;;5108153;27;20201;-76
2022/04/07 13:50:48;;;;;;;1.33;1.23;;;;;;;;;;5122363;27;20575;-75
2022/04/07 13:53:16;;;;;;;2.03;1.33;;;;;;;;;;5120649;27;20197;-75
2022/04/07 13:55:44;;;;;;;1.40;1.30;;;;;;;;;;5119023;28;20220;-75
2022/04/07 13:58:14;;;;;;;1.23;1.20;;;;;;;;;;5120040;28;20212;-75
2022/04/07 14:00:42;;;;;;;1.37;1.20;;;;;;;;;;5119908;28;20759;-75
2022/04/07 14:03:10;;;;;;;1.47;1.37;;;;;;;;;;5119398;28;20207;-75
2022/04/07 14:05:39;;;;;;;2.17;1.53;;;;;;;;;;5119315;28;20284;-76
2022/04/07 14:08:08;;;;;;;1.20;1.10;;;;;;;;;;5120052;28;20205;-75
2022/04/07 14:10:36;;;;;;;1.13;1.03;;;;;;;;;;5119586;28;20224;-76
2022/04/07 14:13:05;;;;;;;2.47;0.93;;;;;;;;;;5119859;28;20219;-75
2022/04/07 14:15:34;;;;;;;2.70;1.10;;;;;;;;;;5119463;28;20224;-76
2022/04/07 14:18:02;;;;;;;1.30;1.20;;;;;;;;;;5119965;28;20227;-75
2022/04/07 14:20:30;;;;;;;2.23;1.43;;;;;;;;;;5119374;28;20233;-76
2022/04/07 14:22:58;;;;;;;2.63;1.47;;;;;;;;;;5111564;28;20201;-75
2022/04/07 14:25:26;;;;;;;3.30;1.03;;;;;;;;;;5119445;28;20220;-75
2022/04/07 14:27:54;;;;;;;5.90;1.80;;;;;;;;;;5118991;28;20207;-75
2022/04/07 14:30:22;;;;;;;1.23;1.00;;;;;;;;;;5119356;28;20213;-75
2022/04/07 14:32:52;;;;;;;2.60;1.20;;;;;;;;;;5119568;28;20201;-75
2022/04/07 14:35:40;;;;;;;7.57;1.10;;;;;;;;;;5119060;28;20586;-75
2022/04/07 14:38:09;;;;;;;1.60;1.50;;;;;;;;;;5119331;28;20249;-75
2022/04/07 14:40:38;;;;;;;2.23;1.20;;;;;;;;;;5119002;28;20189;-75
2022/04/07 14:43:06;;;;;;;2.60;1.60;;;;;;;;;;5119256;28;20201;-75
2022/04/07 14:45:34;;;;;;;2.03;1.20;;;;;;;;;;5119576;28;20216;-75
2022/04/07 14:48:03;;;;;;;1.43;1.10;;;;;;;;;;5119191;28;20205;-76
2022/04/07 14:50:31;;;;;;;1.70;1.10;;;;;;;;;;5119075;28;20686;-75
2022/04/07 14:52:59;;;;;;;5.13;1.70;;;;;;;;;;5118897;27;20204;-75
2022/04/07 14:55:27;;;;;;;2.87;1.53;;;;;;;;;;5111206;28;20276;-76
2022/04/07 14:57:56;;;;;;;2.10;1.33;;;;;;;;;;5118807;28;20262;-75